Airport details for: EVRA (Latvia)

Metar

EVRA 301050Z 33010KT 280V350 9999 SCT025CB BKN030 05/01 Q1022 NOSIG

General details

ICAO: EVRA
IATA: RIX
Name (city): Riga
Major:
Country: Latvia
vACC: vACC Latvia
Description:
Scenery links:
FS9 scenery: Download
FSX/P3D scenery: Download
XP scenery: Download
Elevation: 36 ft.
Transition altitude: 5000 ft.
MSA: 10400 ft.
Latitude: 56.923611
Longitude: 23.971111
EVRA Charts
EVRA Notams
EVRA Online stations

Runways

Number Course Length Elevation Lat Lon ILS ILS freq ILS FAC GP
18 178° 10499ft / 3200 m 31ft 56.93507 23.973075 111.1 178° 3.0°
36 358° 10499ft / 3200 m 36ft 56.90645 23.968356 108.1 358° 3.0°